createdAt,value
2018-03-21T00:02:01.040Z,71.09
2018-03-21T00:04:28.550Z,71.13
2018-03-21T00:06:56.055Z,71.29
2018-03-21T00:09:23.588Z,71.36
2018-03-21T00:11:51.164Z,71.52
2018-03-21T00:14:18.686Z,71.72
2018-03-21T00:16:46.305Z,71.74
2018-03-21T00:19:13.796Z,71.77
2018-03-21T00:21:41.323Z,71.80
2018-03-21T00:24:08.877Z,71.86
2018-03-21T00:26:36.420Z,71.99
2018-03-21T00:29:03.964Z,72.04
2018-03-21T00:31:31.769Z,72.01
2018-03-21T00:33:59.293Z,71.96
2018-03-21T00:36:26.835Z,71.99
2018-03-21T00:38:54.381Z,72.05
2018-03-21T00:41:21.898Z,72.18
2018-03-21T00:43:49.430Z,72.26
2018-03-21T00:46:16.989Z,72.28
2018-03-21T00:48:44.571Z,72.22
2018-03-21T00:51:12.358Z,72.37
2018-03-21T00:53:39.905Z,72.87
2018-03-21T00:56:07.603Z,72.77
2018-03-21T00:58:35.123Z,72.58
2018-03-21T01:01:02.649Z,72.65
2018-03-21T01:03:30.151Z,72.62
2018-03-21T01:05:57.644Z,72.94
2018-03-21T01:08:25.152Z,72.87
2018-03-21T01:10:52.664Z,72.90
2018-03-21T01:13:20.188Z,72.98
2018-03-21T01:15:47.786Z,73.00
2018-03-21T01:18:15.353Z,73.19
2018-03-21T01:20:42.865Z,73.06
2018-03-21T01:23:10.441Z,73.19
2018-03-21T01:25:37.970Z,73.09
2018-03-21T01:28:05.739Z,73.23
2018-03-21T01:30:33.283Z,73.21
2018-03-21T01:33:00.796Z,73.19
2018-03-21T01:35:28.307Z,73.19
2018-03-21T01:37:58.316Z,73.28
2018-03-21T01:40:26.001Z,73.44
2018-03-21T01:42:53.648Z,73.64
2018-03-21T01:45:21.226Z,73.96
2018-03-21T01:47:48.734Z,74.04
2018-03-21T01:50:16.244Z,73.90
2018-03-21T01:52:43.795Z,74.08
2018-03-21T01:55:11.319Z,73.87
2018-03-21T01:57:38.833Z,73.99
2018-03-21T02:00:06.386Z,74.03
2018-03-21T02:02:33.920Z,74.05
2018-03-21T02:05:01.445Z,73.95
2018-03-21T02:07:29.722Z,73.92
2018-03-21T02:09:57.247Z,74.17
2018-03-21T02:12:25.045Z,74.39
2018-03-21T02:14:52.619Z,74.49
2018-03-21T02:17:20.149Z,74.48
2018-03-21T02:19:47.676Z,74.50
2018-03-21T02:22:15.256Z,74.63
2018-03-21T02:24:42.913Z,74.63
2018-03-21T02:27:10.418Z,74.63
2018-03-21T02:29:38.084Z,74.53
2018-03-21T02:32:05.594Z,74.77
2018-03-21T02:34:33.108Z,74.46
2018-03-21T02:37:00.762Z,74.64
2018-03-21T02:39:28.630Z,74.72
2018-03-21T02:41:56.187Z,74.87
2018-03-21T02:44:23.722Z,74.83
2018-03-21T02:46:51.613Z,74.90
2018-03-21T02:49:19.145Z,75.12
2018-03-21T02:51:46.712Z,74.94
2018-03-21T02:54:14.816Z,74.99
2018-03-21T02:56:42.439Z,74.90
2018-03-21T02:59:10.564Z,75.14
2018-03-21T03:01:38.113Z,75.07
2018-03-21T03:04:05.637Z,74.93
2018-03-21T03:06:33.205Z,74.82
2018-03-21T03:09:00.724Z,74.95
2018-03-21T03:11:28.241Z,74.97
2018-03-21T03:13:55.802Z,74.89
2018-03-21T03:16:23.970Z,74.69
2018-03-21T03:18:51.470Z,74.68
2018-03-21T03:21:19.005Z,75.08
2018-03-21T03:23:46.588Z,75.06
2018-03-21T03:26:14.127Z,75.20
2018-03-21T03:28:42.388Z,75.11
2018-03-21T03:31:09.924Z,75.09
2018-03-21T03:33:37.447Z,74.89
2018-03-21T03:36:05.297Z,74.71
2018-03-21T03:38:32.844Z,74.86
2018-03-21T03:41:00.390Z,74.78
2018-03-21T03:43:27.952Z,74.96
2018-03-21T03:45:55.610Z,75.19
2018-03-21T03:48:23.203Z,75.08
2018-03-21T03:50:50.754Z,74.99
2018-03-21T03:53:18.291Z,74.92
2018-03-21T03:55:45.820Z,74.96
2018-03-21T03:58:13.386Z,75.04
2018-03-21T04:00:40.911Z,75.00
2018-03-21T04:03:08.431Z,74.94
2018-03-21T04:05:35.982Z,75.04
2018-03-21T04:08:03.517Z,75.16
2018-03-21T04:10:31.022Z,75.09
2018-03-21T04:12:58.587Z,75.12
2018-03-21T04:15:26.095Z,75.45
2018-03-21T04:17:53.656Z,75.87
2018-03-21T04:20:21.264Z,76.06
2018-03-21T04:22:48.800Z,75.94
2018-03-21T04:25:16.311Z,76.41
2018-03-21T04:27:43.864Z,76.49
2018-03-21T04:30:11.385Z,76.44
2018-03-21T04:32:38.909Z,76.28
2018-03-21T04:35:06.527Z,76.34
2018-03-21T04:37:34.031Z,76.70
2018-03-21T04:40:01.538Z,76.68
2018-03-21T04:42:29.096Z,76.77
2018-03-21T04:44:56.634Z,76.77
2018-03-21T04:47:24.155Z,76.87
2018-03-21T04:49:51.730Z,76.82
2018-03-21T04:52:19.230Z,77.17
2018-03-21T04:54:46.815Z,77.26
2018-03-21T04:57:14.677Z,77.38
2018-03-21T04:59:42.228Z,77.40
2018-03-21T05:02:09.998Z,77.48
2018-03-21T05:04:37.548Z,77.38
2018-03-21T05:07:05.081Z,77.68
2018-03-21T05:09:32.609Z,77.56
2018-03-21T05:12:00.166Z,77.58
2018-03-21T05:14:27.683Z,77.49
2018-03-21T05:16:55.961Z,77.39
2018-03-21T05:19:23.499Z,77.36
2018-03-21T05:21:51.027Z,77.35
2018-03-21T05:24:18.674Z,77.13
2018-03-21T05:26:46.555Z,77.17
2018-03-21T05:29:14.142Z,77.28
2018-03-21T05:31:41.707Z,77.33
2018-03-21T05:34:09.251Z,77.15
2018-03-21T05:36:36.777Z,77.12
2018-03-21T05:39:04.319Z,77.24
2018-03-21T05:41:31.912Z,77.20
2018-03-21T05:43:59.760Z,76.99
2018-03-21T05:46:27.287Z,77.34
2018-03-21T05:48:54.829Z,77.31
2018-03-21T05:51:22.395Z,77.23
2018-03-21T05:53:49.913Z,77.03
2018-03-21T05:56:17.464Z,76.87
2018-03-21T05:58:44.980Z,76.97
2018-03-21T06:01:12.513Z,76.94
2018-03-21T06:03:40.156Z,76.84
2018-03-21T06:06:07.710Z,76.73
2018-03-21T06:08:35.273Z,76.39
2018-03-21T06:11:02.807Z,76.26
2018-03-21T06:13:30.592Z,76.40
2018-03-21T06:15:58.850Z,76.24
2018-03-21T06:18:26.741Z,75.87
2018-03-21T06:20:54.510Z,75.32
2018-03-21T06:23:22.028Z,74.50
2018-03-21T06:25:49.587Z,73.72
2018-03-21T06:28:17.114Z,72.92
2018-03-21T06:30:44.635Z,71.91
2018-03-21T06:33:12.186Z,71.24
2018-03-21T06:35:39.688Z,70.48
2018-03-21T06:38:07.175Z,69.68
2018-03-21T06:40:34.714Z,68.84
2018-03-21T06:43:02.547Z,68.12
2018-03-21T06:45:30.072Z,67.80
2018-03-21T06:47:57.697Z,67.58
2018-03-21T06:50:25.391Z,67.39
2018-03-21T06:52:52.938Z,67.08
2018-03-21T06:55:20.492Z,66.80
2018-03-21T06:57:48.012Z,66.18
2018-03-21T07:00:15.676Z,65.18
2018-03-21T07:02:43.754Z,64.34
2018-03-21T07:05:11.273Z,63.17
2018-03-21T07:07:39.095Z,61.81
2018-03-21T07:10:06.687Z,60.88
2018-03-21T07:12:34.182Z,59.29
2018-03-21T07:15:13.463Z,57.78
2018-03-21T07:17:41.300Z,55.28
2018-03-21T07:20:08.848Z,54.37
2018-03-21T07:22:36.365Z,53.25
2018-03-21T07:25:04.209Z,52.12
2018-03-21T07:27:32.112Z,51.22
2018-03-21T07:29:59.657Z,50.95
2018-03-21T07:32:27.260Z,50.52
2018-03-21T07:34:54.807Z,50.07
2018-03-21T07:37:22.384Z,49.46
2018-03-21T07:39:49.912Z,50.04
2018-03-21T07:42:17.426Z,50.24
2018-03-21T07:44:44.963Z,50.30
2018-03-21T07:47:12.789Z,49.93
2018-03-21T07:49:40.321Z,49.82
2018-03-21T07:52:07.895Z,50.26
2018-03-21T07:54:35.751Z,51.18
2018-03-21T07:57:03.259Z,51.41
2018-03-21T07:59:31.001Z,51.62
2018-03-21T08:01:58.532Z,51.50
2018-03-21T08:04:26.078Z,51.51
2018-03-21T08:06:53.612Z,50.67
2018-03-21T08:09:21.197Z,50.08
2018-03-21T08:11:48.726Z,49.10
2018-03-21T08:14:16.295Z,48.90
2018-03-21T08:16:43.978Z,48.05
2018-03-21T08:19:11.539Z,47.06
2018-03-21T08:21:39.321Z,46.52
2018-03-21T08:24:07.784Z,46.42
2018-03-21T08:26:35.516Z,45.65
2018-03-21T08:29:03.887Z,44.35
2018-03-21T08:31:31.404Z,44.68
2018-03-21T08:33:59.471Z,44.19
2018-03-21T08:36:27.056Z,43.46
2018-03-21T08:38:54.600Z,42.82
2018-03-21T08:41:22.170Z,42.77
2018-03-21T08:43:49.770Z,41.36
2018-03-21T08:46:17.334Z,41.67
2018-03-21T08:48:46.280Z,40.25
2018-03-21T08:51:13.856Z,40.45
2018-03-21T08:53:41.485Z,40.65
2018-03-21T08:56:09.267Z,39.75
2018-03-21T08:58:36.862Z,39.43
2018-03-21T09:01:04.414Z,38.51
2018-03-21T09:03:31.960Z,38.09
2018-03-21T09:05:59.525Z,37.13
2018-03-21T09:08:27.081Z,35.98
2018-03-21T09:10:54.616Z,34.66
2018-03-21T09:13:22.653Z,36.14
2018-03-21T09:15:51.496Z,35.90
2018-03-21T09:18:19.132Z,34.80
2018-03-21T09:20:46.683Z,34.78
2018-03-21T09:23:14.280Z,35.87
2018-03-21T09:25:41.808Z,35.56
2018-03-21T09:28:09.338Z,35.58
2018-03-21T09:30:36.852Z,34.52
2018-03-21T09:33:04.385Z,33.60
2018-03-21T09:35:32.043Z,35.73
2018-03-21T09:37:59.954Z,35.57
2018-03-21T09:40:27.473Z,34.93
2018-03-21T09:42:55.226Z,34.93
2018-03-21T09:45:22.734Z,34.90
2018-03-21T09:47:50.245Z,33.10
2018-03-21T09:50:17.775Z,34.34
2018-03-21T09:52:45.299Z,34.97
2018-03-21T09:55:13.181Z,36.10
2018-03-21T09:57:40.711Z,36.85
2018-03-21T10:00:08.220Z,38.32
2018-03-21T10:02:35.758Z,38.84
2018-03-21T10:05:03.628Z,39.47
2018-03-21T10:07:31.383Z,39.08
2018-03-21T10:09:59.882Z,38.92
2018-03-21T10:12:27.509Z,38.92
2018-03-21T10:14:55.042Z,38.59
2018-03-21T10:17:22.568Z,38.53
2018-03-21T10:19:50.161Z,39.52
2018-03-21T10:22:17.689Z,40.07
2018-03-21T10:24:45.252Z,39.57
2018-03-21T10:27:12.854Z,38.14
2018-03-21T10:29:40.373Z,37.99
2018-03-21T10:32:07.874Z,38.18
2018-03-21T10:34:35.425Z,36.70
2018-03-21T10:37:02.959Z,35.25
2018-03-21T10:39:30.944Z,33.20
2018-03-21T10:41:58.506Z,33.94
2018-03-21T10:44:26.137Z,32.96
2018-03-21T10:46:53.682Z,30.36
2018-03-21T10:49:21.248Z,29.74
2018-03-21T10:51:48.763Z,29.44
2018-03-21T10:54:16.276Z,27.36
2018-03-21T10:56:43.849Z,27.23
2018-03-21T10:59:11.764Z,26.64
2018-03-21T11:01:41.930Z,26.53
2018-03-21T11:04:18.276Z,26.28
2018-03-21T11:06:45.835Z,26.08
2018-03-21T11:09:13.388Z,25.63
2018-03-21T11:11:40.976Z,25.55
2018-03-21T11:14:08.470Z,25.35
2018-03-21T11:16:36.308Z,26.30
2018-03-21T11:19:03.883Z,26.83
2018-03-21T11:21:32.104Z,27.11
2018-03-21T11:23:59.617Z,28.02
2018-03-21T11:26:27.194Z,28.58
2018-03-21T11:28:54.749Z,29.60
2018-03-21T11:31:22.227Z,27.94
2018-03-21T11:33:49.754Z,28.14
2018-03-21T11:36:17.292Z,26.60
2018-03-21T11:38:44.813Z,26.33
2018-03-21T11:41:12.365Z,26.44
2018-03-21T11:43:39.885Z,27.18
2018-03-21T11:46:07.622Z,28.42
2018-03-21T11:48:35.317Z,28.91
2018-03-21T11:51:02.881Z,25.98
2018-03-21T11:53:30.490Z,23.37
2018-03-21T11:55:58.105Z,20.98
2018-03-21T11:58:25.625Z,21.18
2018-03-21T12:00:53.190Z,21.21
2018-03-21T12:03:20.730Z,21.26
2018-03-21T12:05:48.231Z,22.81
2018-03-21T12:08:15.845Z,23.86
2018-03-21T12:10:43.770Z,24.01
2018-03-21T12:13:11.469Z,21.87
2018-03-21T12:15:39.090Z,19.04
2018-03-21T12:18:06.877Z,18.41
2018-03-21T12:20:34.487Z,21.35
2018-03-21T12:23:03.034Z,22.23
2018-03-21T12:25:30.654Z,21.98
2018-03-21T12:27:58.174Z,21.60
2018-03-21T12:30:25.755Z,19.39
2018-03-21T12:32:53.330Z,19.92
2018-03-21T12:35:20.959Z,19.82
2018-03-21T12:37:48.546Z,19.36
2018-03-21T12:40:16.246Z,19.48
2018-03-21T12:42:43.824Z,19.06
2018-03-21T12:45:11.359Z,18.27
2018-03-21T12:47:38.901Z,21.00
2018-03-21T12:50:06.420Z,22.21
2018-03-21T12:52:33.968Z,23.24
2018-03-21T12:55:01.498Z,24.78
2018-03-21T12:57:29.063Z,25.59
2018-03-21T12:59:56.588Z,26.12
2018-03-21T13:02:24.184Z,25.66
2018-03-21T13:04:52.318Z,25.65
2018-03-21T13:07:19.835Z,24.90
2018-03-21T13:09:47.445Z,25.08
2018-03-21T13:12:15.248Z,24.36
2018-03-21T13:14:42.745Z,24.43
2018-03-21T13:17:10.293Z,23.75
2018-03-21T13:19:38.114Z,22.64
2018-03-21T13:22:05.630Z,21.80
2018-03-21T13:24:33.218Z,23.45
2018-03-21T13:27:00.813Z,24.66
2018-03-21T13:29:28.369Z,25.62
2018-03-21T13:31:56.754Z,23.71
2018-03-21T13:34:24.610Z,22.54
2018-03-21T13:36:52.145Z,21.60
2018-03-21T13:39:19.941Z,21.42
2018-03-21T13:41:47.562Z,23.15
2018-03-21T13:44:15.730Z,24.33
2018-03-21T13:46:43.394Z,24.00
2018-03-21T13:49:11.218Z,23.24
2018-03-21T13:51:39.059Z,21.54
2018-03-21T13:54:06.606Z,21.70
2018-03-21T13:56:34.133Z,21.55
2018-03-21T13:59:01.959Z,21.01
2018-03-21T14:01:29.488Z,20.64
2018-03-21T14:03:57.016Z,20.09
2018-03-21T14:06:24.629Z,23.74
2018-03-21T14:08:52.171Z,25.80
2018-03-21T14:11:19.756Z,25.63
2018-03-21T14:13:47.284Z,24.82
2018-03-21T14:16:14.890Z,26.26
2018-03-21T14:18:42.501Z,25.96
2018-03-21T14:21:10.019Z,25.72
2018-03-21T14:23:37.579Z,25.59
2018-03-21T14:26:05.090Z,24.63
2018-03-21T14:28:32.603Z,23.66
2018-03-21T14:31:00.236Z,23.66
2018-03-21T14:33:27.746Z,24.53
2018-03-21T14:35:55.288Z,26.42
2018-03-21T14:38:22.832Z,28.66
2018-03-21T14:40:50.357Z,29.64
2018-03-21T14:43:18.088Z,29.57
2018-03-21T14:45:45.748Z,29.70
2018-03-21T14:48:13.325Z,30.59
2018-03-21T14:50:40.835Z,31.59
2018-03-21T14:53:08.423Z,31.76
2018-03-21T14:55:35.904Z,31.89
2018-03-21T14:58:03.504Z,33.14
2018-03-21T15:00:31.092Z,32.68
2018-03-21T15:02:58.666Z,32.33
2018-03-21T15:05:26.196Z,32.24
2018-03-21T15:07:53.732Z,31.93
2018-03-21T15:10:21.269Z,31.46
2018-03-21T15:12:48.789Z,31.44
2018-03-21T15:15:16.354Z,31.43
2018-03-21T15:17:43.865Z,31.99
2018-03-21T15:20:11.363Z,33.05
2018-03-21T15:22:38.890Z,33.96
2018-03-21T15:25:06.399Z,34.57
2018-03-21T15:27:33.941Z,34.77
2018-03-21T15:30:01.816Z,34.75
2018-03-21T15:32:29.573Z,34.97
2018-03-21T15:34:57.068Z,35.09
2018-03-21T15:37:24.617Z,35.39
2018-03-21T15:39:52.456Z,35.02
2018-03-21T15:42:19.958Z,35.41
2018-03-21T15:44:47.510Z,35.38
2018-03-21T15:47:15.361Z,35.75
2018-03-21T15:49:42.863Z,36.74
2018-03-21T15:52:10.430Z,37.08
2018-03-21T15:54:37.946Z,37.24
2018-03-21T15:57:05.460Z,37.51
2018-03-21T15:59:33.015Z,37.65
2018-03-21T16:02:00.531Z,38.22
2018-03-21T16:04:28.069Z,38.86
2018-03-21T16:06:55.697Z,38.82
2018-03-21T16:09:23.210Z,39.06
2018-03-21T16:11:51.724Z,39.26
2018-03-21T16:14:19.294Z,39.79
2018-03-21T16:16:46.808Z,40.27
2018-03-21T16:19:14.333Z,40.38
2018-03-21T16:21:41.859Z,40.49
2018-03-21T16:24:09.529Z,41.07
2018-03-21T16:26:37.050Z,41.15
2018-03-21T16:29:04.610Z,41.38
2018-03-21T16:31:32.112Z,41.60
2018-03-21T16:33:59.922Z,42.02
2018-03-21T16:36:27.495Z,42.03
2018-03-21T16:38:55.045Z,42.16
2018-03-21T16:41:22.585Z,42.90
2018-03-21T16:43:50.144Z,42.97
2018-03-21T16:46:17.938Z,43.40
2018-03-21T16:48:45.495Z,43.75
2018-03-21T16:51:13.131Z,44.21
2018-03-21T16:53:40.650Z,44.24
2018-03-21T16:56:08.405Z,44.57
2018-03-21T16:58:36.248Z,44.85
2018-03-21T17:01:03.774Z,45.02
2018-03-21T17:03:31.296Z,45.32
2018-03-21T17:05:58.933Z,45.72
2018-03-21T17:08:26.460Z,46.09
2018-03-21T17:10:53.991Z,46.67
2018-03-21T17:13:21.548Z,46.49
2018-03-21T17:15:49.049Z,46.54
2018-03-21T17:18:16.600Z,47.31
2018-03-21T17:20:44.148Z,47.42
2018-03-21T17:23:12.621Z,47.39
2018-03-21T17:25:40.204Z,47.72
2018-03-21T17:28:07.800Z,48.18
2018-03-21T17:30:35.663Z,48.48
2018-03-21T17:33:04.472Z,48.76
2018-03-21T17:35:32.082Z,48.86
2018-03-21T17:37:59.640Z,49.02
2018-03-21T17:40:27.156Z,49.07
2018-03-21T17:42:54.868Z,49.09
2018-03-21T17:45:22.415Z,49.35
2018-03-21T17:47:49.931Z,49.52
2018-03-21T17:50:17.467Z,49.51
2018-03-21T17:52:45.042Z,49.67
2018-03-21T17:55:12.865Z,49.73
2018-03-21T17:57:41.993Z,50.21
2018-03-21T18:00:09.518Z,50.71
2018-03-21T18:02:37.048Z,50.72
2018-03-21T18:05:04.598Z,50.75
2018-03-21T18:07:32.097Z,50.53
2018-03-21T18:09:59.927Z,50.60
2018-03-21T18:12:27.489Z,50.87
2018-03-21T18:14:55.057Z,51.09
2018-03-21T18:17:22.907Z,51.25
2018-03-21T18:19:50.436Z,51.33
2018-03-21T18:22:18.016Z,51.83
2018-03-21T18:24:45.535Z,51.71
2018-03-21T18:27:13.064Z,51.97
2018-03-21T18:29:40.589Z,52.43
2018-03-21T18:32:08.186Z,52.57
2018-03-21T18:34:35.689Z,52.93
2018-03-21T18:37:03.493Z,52.59
2018-03-21T18:39:31.453Z,52.81
2018-03-21T18:41:59.032Z,52.82
2018-03-21T18:44:26.649Z,52.80
2018-03-21T18:46:54.509Z,53.11
2018-03-21T18:49:22.426Z,53.86
2018-03-21T18:51:49.978Z,54.01
2018-03-21T18:54:17.544Z,53.72
2018-03-21T18:56:45.094Z,53.64
2018-03-21T18:59:12.638Z,53.97
2018-03-21T19:01:40.145Z,54.33
2018-03-21T19:04:07.709Z,54.11
2018-03-21T19:06:35.292Z,54.00
2018-03-21T19:09:03.229Z,54.15
2018-03-21T19:11:30.789Z,54.20
2018-03-21T19:13:58.639Z,54.10
2018-03-21T19:16:26.173Z,54.26
2018-03-21T19:18:53.702Z,54.25
2018-03-21T19:21:21.236Z,53.95
2018-03-21T19:23:48.833Z,54.16
2018-03-21T19:26:16.451Z,53.92
2018-03-21T19:28:44.315Z,54.20
2018-03-21T19:31:11.837Z,54.27
2018-03-21T19:33:40.192Z,53.96
2018-03-21T19:36:08.019Z,53.90
2018-03-21T19:38:35.898Z,53.82
2018-03-21T19:41:03.489Z,54.41
2018-03-21T19:43:31.047Z,54.42
2018-03-21T19:45:58.778Z,54.55
2018-03-21T19:48:26.334Z,54.71
2018-03-21T19:50:54.187Z,54.73
2018-03-21T19:53:21.785Z,54.75
2018-03-21T19:55:49.353Z,54.88
2018-03-21T19:58:16.887Z,55.01
2018-03-21T20:00:44.686Z,54.87
2018-03-21T20:03:12.241Z,55.00
2018-03-21T20:05:39.826Z,55.22
2018-03-21T20:08:07.638Z,55.74
2018-03-21T20:10:35.206Z,55.68
2018-03-21T20:13:02.976Z,55.77
2018-03-21T20:15:30.859Z,55.75
2018-03-21T20:17:58.419Z,56.02
2018-03-21T20:20:26.052Z,56.47
2018-03-21T20:22:53.707Z,56.31
2018-03-21T20:25:21.282Z,56.97
2018-03-21T20:27:49.166Z,57.00
2018-03-21T20:30:16.686Z,56.95
2018-03-21T20:32:44.222Z,57.10
2018-03-21T20:35:11.863Z,56.93
2018-03-21T20:37:39.448Z,57.42
2018-03-21T20:40:06.978Z,57.28
2018-03-21T20:42:34.532Z,57.24
2018-03-21T20:45:02.089Z,57.09
2018-03-21T20:47:30.331Z,57.42
2018-03-21T20:49:57.885Z,57.63
2018-03-21T20:52:26.430Z,57.80
2018-03-21T20:54:53.960Z,57.57
2018-03-21T20:57:21.631Z,57.71
2018-03-21T20:59:49.190Z,57.79
2018-03-21T21:02:16.923Z,57.79
2018-03-21T21:04:44.683Z,57.93
2018-03-21T21:07:12.268Z,58.19
2018-03-21T21:09:39.854Z,58.69
2018-03-21T21:12:08.138Z,58.80
2018-03-21T21:14:35.718Z,59.00
2018-03-21T21:17:03.260Z,58.95
2018-03-21T21:19:30.798Z,59.10
2018-03-21T21:21:58.322Z,59.21
2018-03-21T21:24:25.888Z,59.56
2018-03-21T21:26:53.534Z,60.03
2018-03-21T21:29:21.365Z,59.75
2018-03-21T21:31:48.944Z,59.88
2018-03-21T21:34:16.769Z,60.08
2018-03-21T21:36:44.534Z,60.03
2018-03-21T21:39:12.160Z,60.40
2018-03-21T21:41:39.717Z,60.32
2018-03-21T21:44:08.120Z,60.52
2018-03-21T21:46:35.688Z,60.27
2018-03-21T21:49:03.399Z,60.39
2018-03-21T21:51:30.973Z,59.96
2018-03-21T21:53:58.540Z,59.90
2018-03-21T21:56:26.087Z,59.56
2018-03-21T21:58:53.690Z,59.64
2018-03-21T22:01:21.358Z,59.75
2018-03-21T22:03:49.603Z,60.17
2018-03-21T22:06:17.433Z,60.29
2018-03-21T22:08:45.128Z,60.74
2018-03-21T22:11:12.870Z,60.66
2018-03-21T22:13:40.738Z,60.27
2018-03-21T22:16:08.497Z,60.35
2018-03-21T22:18:36.236Z,60.14
2018-03-21T22:21:04.633Z,60.02
2018-03-21T22:23:32.160Z,59.80
2018-03-21T22:25:59.910Z,59.97
2018-03-21T22:28:28.243Z,59.54
2018-03-21T22:30:55.826Z,59.83
2018-03-21T22:33:23.344Z,59.55
2018-03-21T22:35:50.951Z,59.35
2018-03-21T22:38:18.492Z,59.18
2018-03-21T22:40:46.042Z,59.14
2018-03-21T22:43:13.587Z,59.42
2018-03-21T22:45:41.355Z,59.11
2018-03-21T22:48:08.878Z,59.04
2018-03-21T22:50:36.380Z,58.84
2018-03-21T22:53:04.239Z,58.70
2018-03-21T22:55:31.821Z,58.82
2018-03-21T22:57:59.329Z,58.71
2018-03-21T23:00:26.881Z,59.02
2018-03-21T23:02:54.698Z,59.70
2018-03-21T23:05:22.211Z,59.67
2018-03-21T23:07:49.774Z,59.94
2018-03-21T23:10:17.281Z,59.83
2018-03-21T23:12:44.806Z,59.63
2018-03-21T23:15:12.380Z,59.65
2018-03-21T23:17:39.878Z,59.79
2018-03-21T23:20:07.719Z,60.08
2018-03-21T23:22:35.295Z,59.66
2018-03-21T23:25:02.896Z,59.87
2018-03-21T23:27:30.429Z,60.18
2018-03-21T23:29:57.990Z,60.13
2018-03-21T23:32:25.520Z,60.51
2018-03-21T23:34:53.030Z,61.17
2018-03-21T23:37:20.586Z,61.33
2018-03-21T23:39:48.080Z,61.19
2018-03-21T23:42:16.667Z,61.76
2018-03-21T23:44:44.435Z,61.79
2018-03-21T23:47:11.955Z,61.96
2018-03-21T23:49:39.472Z,61.78
2018-03-21T23:52:07.006Z,62.14
2018-03-21T23:54:34.590Z,62.43
2018-03-21T23:57:02.131Z,62.94
2018-03-21T23:59:29.686Z,62.60
